Gulf Service — WDG9354 — position and weather

sailwx.info

Track history (hours):
 
Tides and Currents Weather Stations Pressure Air Temp Water Temp Dewpoint Dewpoint Depression Visibility Wind Speed Wind Dir Waves Ship Positions

Gulf Service

Owner: Genesis Marine, LLC, Houston, TX. More information available from US FCC via Universal Licensing System and Coast Guard Vessel Documentation Center.

Last reported at 2017-Sep-19 22:00 UTC. Time now 2017-Sep-19 22:22 UTC.
Position N 39°52' W 075°13'.

Length 36 m; draft 4.9 m.

Type: Towing. MMSI: 367586910.

Date/timePositionNaut miles runAvg speedWind from/ knotsBaromVisibWave heightAir tempDewpointWater temp
2017-Sep-19 22:00N 39°52' W 075°13'0 0.0
2017-Sep-19 21:30N 39°52' W 075°13'0 0.0
2017-Sep-19 21:00N 39°52' W 075°13'0 0.0
2017-Sep-19 20:30N 39°52' W 075°13'0 0.0
2017-Sep-19 20:00N 39°52' W 075°13'0 0.0
2017-Sep-19 19:30N 39°52' W 075°13'0 0.0
2017-Sep-19 19:00N 39°52' W 075°13'0 0.0
2017-Sep-19 18:30N 39°52' W 075°13'0 0.2
2017-Sep-19 18:00N 39°52' W 075°13'0 0.1
2017-Sep-19 17:30N 39°52' W 075°13'0 0.0
2017-Sep-19 17:00N 39°52' W 075°13'0 0.0
2017-Sep-19 16:30N 39°52' W 075°13'0 0.0
2017-Sep-19 16:00N 39°52' W 075°13'0 0.0
2017-Sep-19 15:30N 39°52' W 075°13'0 0.0
2017-Sep-19 15:00N 39°52' W 075°13'0 0.1
2017-Sep-19 14:30N 39°52' W 075°13'0 0.1
2017-Sep-19 14:00N 39°52' W 075°13'0 0.1
2017-Sep-19 13:30N 39°52' W 075°13'0 0.2
2017-Sep-19 13:00N 39°52' W 075°13'0 0.1
2017-Sep-19 12:30N 39°52' W 075°13'0 0.0
2017-Sep-19 12:00N 39°52' W 075°13'0 0.0
2017-Sep-19 11:30N 39°52' W 075°13'0 0.0
2017-Sep-19 11:00N 39°52' W 075°13'0 0.0
2017-Sep-19 10:30N 39°52' W 075°13'0 0.0
2017-Sep-19 10:00N 39°52' W 075°13'0 0.0
2017-Sep-19 09:30N 39°52' W 075°13'0 0.0
2017-Sep-19 09:01N 39°52' W 075°13'0 0.0
2017-Sep-19 08:30N 39°52' W 075°13'1 1.8
2017-Sep-19 08:00N 39°51' W 075°14'4 7.6
2017-Sep-19 07:31N 39°51' W 075°19'4 7.3
2017-Sep-19 07:01N 39°49' W 075°23'0 0.7
2017-Sep-19 06:30N 39°49' W 075°24'0 0.2
2017-Sep-19 06:00N 39°49' W 075°24'0 0.3
2017-Sep-19 05:30N 39°49' W 075°23'0 0.1
2017-Sep-19 05:00N 39°49' W 075°23'0 0.0
2017-Sep-19 04:29N 39°49' W 075°23'0 0.0
2017-Sep-19 03:59N 39°49' W 075°23'0 0.0
2017-Sep-19 03:29N 39°49' W 075°23'0 0.0
2017-Sep-19 02:59N 39°49' W 075°23'0 0.0
2017-Sep-19 02:29N 39°49' W 075°23'0 0.0
2017-Sep-19 01:59N 39°49' W 075°23'0 0.1
2017-Sep-19 01:29N 39°49' W 075°23'0 0.0
2017-Sep-19 00:59N 39°49' W 075°23'0 0.2
2017-Sep-19 00:29N 39°49' W 075°24'0 0.3
2017-Sep-18 23:59N 39°49' W 075°24'0 0.2
2017-Sep-18 23:30N 39°49' W 075°24'1 1.1
2017-Sep-18 23:00N 39°48' W 075°24'0 0.6
2017-Sep-18 22:30N 39°49' W 075°24'3 6.8
2017-Sep-18 22:01N 39°51' W 075°21'3 6.8
2017-Sep-18 21:30N 39°51' W 075°16'2 4.4
2017-Sep-18 21:00N 39°52' W 075°14'0 0.0
2017-Sep-18 20:31N 39°52' W 075°14'0 0.0
2017-Sep-18 19:58N 39°52' W 075°14'0 0.0
2017-Sep-18 19:28N 39°52' W 075°14'0 0.0
2017-Sep-18 18:58N 39°52' W 075°14'0 0.1
2017-Sep-18 18:28N 39°52' W 075°14'0 0.4
2017-Sep-18 17:58N 39°52' W 075°13'0 0.1
2017-Sep-18 17:28N 39°52' W 075°13'0 0.0
2017-Sep-18 16:58N 39°52' W 075°13'0 0.0
2017-Sep-18 16:28N 39°52' W 075°13'0 0.0
2017-Sep-18 15:58N 39°52' W 075°13'0 0.0
2017-Sep-18 15:28N 39°52' W 075°13'0 0.0
2017-Sep-18 14:58N 39°52' W 075°13'0 0.0
2017-Sep-18 14:28N 39°52' W 075°13'0 0.0
2017-Sep-18 13:58N 39°52' W 075°13'0 0.0
2017-Sep-18 13:28N 39°52' W 075°13'0 0.3
2017-Sep-18 12:58N 39°52' W 075°13'0 0.4
2017-Sep-18 12:28N 39°52' W 075°14'0 0.0
2017-Sep-18 11:58N 39°52' W 075°14'0 0.1
2017-Sep-18 11:28N 39°52' W 075°14'0 0.1
2017-Sep-18 10:58N 39°52' W 075°14'0 0.0
2017-Sep-18 10:28N 39°52' W 075°14'0 0.0
2017-Sep-18 09:58N 39°52' W 075°14'0 0.0
2017-Sep-18 09:28N 39°52' W 075°14'0 0.0
2017-Sep-18 08:58N 39°52' W 075°14'0 0.0
2017-Sep-18 08:28N 39°52' W 075°14'0 0.0
2017-Sep-18 07:58N 39°52' W 075°14'0 0.0
2017-Sep-18 07:28N 39°52' W 075°14'0 0.1
2017-Sep-18 06:58N 39°52' W 075°14'0 0.0
2017-Sep-18 06:30N 39°52' W 075°14'0 0.6
2017-Sep-18 06:01N 39°51' W 075°14'0 0.9
2017-Sep-18 05:31N 39°52' W 075°14'2 3.8
2017-Sep-18 05:01N 39°51' W 075°16'4 8.1
2017-Sep-18 04:30N 39°50' W 075°21'4 8.3
2017-Sep-18 04:01N 39°48' W 075°25'4 8.5
2017-Sep-18 03:31N 39°45' W 075°29'4 8.9
2017-Sep-18 03:01N 39°41' W 075°31'4 8.8
2017-Sep-18 02:31N 39°37' W 075°35'4 7.1
2017-Sep-18 01:59N 39°34' W 075°33'2 4.3
2017-Sep-18 01:30N 39°35' W 075°35'0 0.5
2017-Sep-18 01:00N 39°35' W 075°36'0 0.0
2017-Sep-18 00:30N 39°35' W 075°36'0 0.0
2017-Sep-18 00:00N 39°35' W 075°36'0 0.0
2017-Sep-17 23:30N 39°35' W 075°36'0 0.0
2017-Sep-17 23:00N 39°35' W 075°36'0 0.0
2017-Sep-17 22:30N 39°35' W 075°36'0 0.0
2017-Sep-17 22:00N 39°35' W 075°36'0 0.0
2017-Sep-17 21:30N 39°35' W 075°36'0 0.0
2017-Sep-17 21:00N 39°35' W 075°36'0 0.0
2017-Sep-17 20:30N 39°35' W 075°36'0 0.0
2017-Sep-17 20:00N 39°35' W 075°36'0 0.0
2017-Sep-17 19:30N 39°35' W 075°36'0 0.0
2017-Sep-17 19:00N 39°35' W 075°36'0 0.0
2017-Sep-17 18:30N 39°35' W 075°36'0 0.0
2017-Sep-17 18:00N 39°35' W 075°36'0 0.0
2017-Sep-17 17:30N 39°35' W 075°36'0 0.0
2017-Sep-17 17:00N 39°35' W 075°36'0 0.0
2017-Sep-17 16:30N 39°35' W 075°36'0 0.0
2017-Sep-17 16:00N 39°35' W 075°36'0 0.0
2017-Sep-17 15:30N 39°35' W 075°36'0 0.0
2017-Sep-17 15:00N 39°35' W 075°36'0 0.0
2017-Sep-17 14:30N 39°35' W 075°36'0 0.0
2017-Sep-17 14:00N 39°35' W 075°36'0 0.0
2017-Sep-17 13:30N 39°35' W 075°36'0 0.0
2017-Sep-17 13:00N 39°35' W 075°36'0 0.0
2017-Sep-17 12:30N 39°35' W 075°36'0 0.0
2017-Sep-17 12:00N 39°35' W 075°36'0 0.0
2017-Sep-17 11:30N 39°35' W 075°36'0 0.0
2017-Sep-17 11:00N 39°35' W 075°36'0 0.0
2017-Sep-17 10:30N 39°35' W 075°36'0 0.0
2017-Sep-17 10:00N 39°35' W 075°36'0 0.0
2017-Sep-17 09:30N 39°35' W 075°36'0 0.0
2017-Sep-17 09:00N 39°35' W 075°36'0 0.0
2017-Sep-17 08:30N 39°35' W 075°36'0 0.0
2017-Sep-17 08:00N 39°35' W 075°36'0 0.0
2017-Sep-17 07:30N 39°35' W 075°36'0 0.0
2017-Sep-17 07:00N 39°35' W 075°36'0 0.0
2017-Sep-17 06:30N 39°35' W 075°36'0 0.0
2017-Sep-17 06:00N 39°35' W 075°36'0 0.0
2017-Sep-17 05:30N 39°35' W 075°36'0 0.0
2017-Sep-17 05:00N 39°35' W 075°36'0 0.0
2017-Sep-17 04:30N 39°35' W 075°36'0 0.0
2017-Sep-17 04:00N 39°35' W 075°36'0 0.0
2017-Sep-17 03:30N 39°35' W 075°36'0 0.0
2017-Sep-17 03:00N 39°35' W 075°36'0 0.0
2017-Sep-17 02:30N 39°35' W 075°36'0 0.0
2017-Sep-17 02:00N 39°35' W 075°36'0 0.0
2017-Sep-17 01:30N 39°35' W 075°36'0 0.0
2017-Sep-17 01:00N 39°35' W 075°36'0 0.0
2017-Sep-17 00:30N 39°35' W 075°36'0 0.0
2017-Sep-17 00:00N 39°35' W 075°36'0 0.0
2017-Sep-16 23:30N 39°35' W 075°36'0 0.0
2017-Sep-16 23:00N 39°35' W 075°36'0 0.0
2017-Sep-16 22:30N 39°35' W 075°36'0 0.0
2017-Sep-16 22:00N 39°35' W 075°36'0 0.0
2017-Sep-16 21:30N 39°35' W 075°36'0 0.0
2017-Sep-16 21:00N 39°35' W 075°36'0 0.0
2017-Sep-16 20:30N 39°35' W 075°36'0 0.0
2017-Sep-16 20:00N 39°35' W 075°36'0 0.0
2017-Sep-16 19:30N 39°35' W 075°36'0 0.0
2017-Sep-16 19:00N 39°35' W 075°36'0 0.0
2017-Sep-16 18:31N 39°35' W 075°36'0 0.0
2017-Sep-16 18:00N 39°35' W 075°36'0 0.0
2017-Sep-16 17:27N 39°35' W 075°36'0 0.0
2017-Sep-16 17:00N 39°35' W 075°36'0 0.0
2017-Sep-16 16:30N 39°35' W 075°36'0 0.0
2017-Sep-16 16:00N 39°35' W 075°36'0 0.0
2017-Sep-16 15:30N 39°35' W 075°36'0 0.0
2017-Sep-16 15:00N 39°35' W 075°36'0 0.0
2017-Sep-16 14:30N 39°35' W 075°36'0 0.0
2017-Sep-16 14:00N 39°35' W 075°36'1 3.0
2017-Sep-16 13:30N 39°34' W 075°34'2 3.1
2017-Sep-16 13:00N 39°33' W 075°33'2 4.4
2017-Sep-16 12:30N 39°35' W 075°34'3 6.8
2017-Sep-16 12:00N 39°39' W 075°34'4 7.5
2017-Sep-16 11:31N 39°42' W 075°31'1 2.9
2017-Sep-16 11:01N 39°43' W 075°30'0 0.1
2017-Sep-16 10:30N 39°43' W 075°30'0 0.0
2017-Sep-16 09:58N 39°43' W 075°30'0 0.3
2017-Sep-16 09:28N 39°43' W 075°30'0 0.2
2017-Sep-16 08:58N 39°43' W 075°30'0 0.0
2017-Sep-16 08:28N 39°43' W 075°30'0 0.0
2017-Sep-16 07:58N 39°43' W 075°30'0 0.0
2017-Sep-16 07:28N 39°43' W 075°30'0 0.0
2017-Sep-16 06:58N 39°43' W 075°30'0 0.0
2017-Sep-16 06:28N 39°43' W 075°30'0 0.0
2017-Sep-16 05:58N 39°43' W 075°30'0 0.0
2017-Sep-16 05:28N 39°43' W 075°30'0 0.0
2017-Sep-16 04:58N 39°43' W 075°30'0 0.0
2017-Sep-16 04:28N 39°43' W 075°30'0 0.0
2017-Sep-16 03:58N 39°43' W 075°30'0 0.0
2017-Sep-16 03:28N 39°43' W 075°30'0 0.2
2017-Sep-16 02:58N 39°43' W 075°30'0 0.4
2017-Sep-16 02:28N 39°43' W 075°30'0 0.0
2017-Sep-16 01:58N 39°43' W 075°30'0 0.0
2017-Sep-16 01:28N 39°43' W 075°30'0 0.0
2017-Sep-16 00:58N 39°43' W 075°30'0 0.0
2017-Sep-16 00:28N 39°43' W 075°30'0 0.0
2017-Sep-15 23:55N 39°43' W 075°30'0 0.0
2017-Sep-15 23:28N 39°43' W 075°30'0 0.0
2017-Sep-15 22:58N 39°43' W 075°30'0 0.0
2017-Sep-15 22:28N 39°43' W 075°30'0 0.0
2017-Sep-15 21:58N 39°43' W 075°30'0 0.0
2017-Sep-15 21:28N 39°43' W 075°30'0 0.0
2017-Sep-15 20:58N 39°43' W 075°30'0 0.0
2017-Sep-15 20:28N 39°43' W 075°30'0 0.2
2017-Sep-15 19:58N 39°43' W 075°30'0 0.2
2017-Sep-15 19:28N 39°43' W 075°30'0 0.0
2017-Sep-15 18:58N 39°43' W 075°30'0 0.0
2017-Sep-15 18:28N 39°43' W 075°30'0 0.0
2017-Sep-15 17:58N 39°43' W 075°30'0 0.0
2017-Sep-15 17:28N 39°43' W 075°30'0 0.0
2017-Sep-15 16:58N 39°43' W 075°30'0 0.0
2017-Sep-15 16:28N 39°43' W 075°30'0 0.0
2017-Sep-15 15:58N 39°43' W 075°30'0 0.0
2017-Sep-15 15:28N 39°43' W 075°30'0 0.0
2017-Sep-15 14:58N 39°43' W 075°30'0 0.1
2017-Sep-15 14:28N 39°43' W 075°30'0 0.3
2017-Sep-15 13:58N 39°43' W 075°30'0 0.1
2017-Sep-15 13:28N 39°43' W 075°30'0 0.0
2017-Sep-15 12:58N 39°43' W 075°30'0 0.0
2017-Sep-15 12:28N 39°43' W 075°30'0 0.0
2017-Sep-15 11:58N 39°43' W 075°30'0 0.0
2017-Sep-15 11:28N 39°43' W 075°30'0 0.0
2017-Sep-15 10:58N 39°43' W 075°30'0 0.0
2017-Sep-15 10:28N 39°43' W 075°30'0 0.0
2017-Sep-15 09:58N 39°43' W 075°30'0 0.0
2017-Sep-15 09:28N 39°43' W 075°30'0 0.0
2017-Sep-15 08:58N 39°43' W 075°30'0 0.1
2017-Sep-15 08:28N 39°43' W 075°30'0 0.3
2017-Sep-15 07:58N 39°43' W 075°30'0 0.1
2017-Sep-15 07:28N 39°43' W 075°30'0 0.0
2017-Sep-15 06:58N 39°43' W 075°30'0 0.0
2017-Sep-15 06:28N 39°43' W 075°30'0 0.0
2017-Sep-15 05:58N 39°43' W 075°30'0 0.0
2017-Sep-15 05:25N 39°43' W 075°30'0 0.0
2017-Sep-15 04:58N 39°43' W 075°30'0 0.0
2017-Sep-15 04:28N 39°43' W 075°30'0 0.0
2017-Sep-15 03:58N 39°43' W 075°30'0 0.0
2017-Sep-15 03:28N 39°43' W 075°30'0 0.0
2017-Sep-15 02:58N 39°43' W 075°30'0 0.0
2017-Sep-15 02:28N 39°43' W 075°30'0 0.0
2017-Sep-15 01:58N 39°43' W 075°30'0 0.3
2017-Sep-15 01:28N 39°43' W 075°30'0 0.1
2017-Sep-15 00:58N 39°43' W 075°30'0 0.0
2017-Sep-15 00:28N 39°43' W 075°30'0 0.0
2017-Sep-14 23:58N 39°43' W 075°30'0 0.0
2017-Sep-14 23:31N 39°43' W 075°30'0 0.0
2017-Sep-14 23:01N 39°43' W 075°30'0 0.0
2017-Sep-14 22:25N 39°43' W 075°30'0 0.0
2017-Sep-14 21:58N 39°43' W 075°30'0 0.0
2017-Sep-14 21:31N 39°43' W 075°30'0 0.0
2017-Sep-14 21:01N 39°43' W 075°30'0 0.0
2017-Sep-14 20:31N 39°43' W 075°30'0 0.0
2017-Sep-14 20:01N 39°43' W 075°30'0 0.0
2017-Sep-14 19:31N 39°43' W 075°30'0 0.2
2017-Sep-14 19:01N 39°43' W 075°30'0 0.3
2017-Sep-14 18:31N 39°43' W 075°30'0 0.1
2017-Sep-14 18:00N 39°43' W 075°30'0 0.0
2017-Sep-14 17:31N 39°43' W 075°30'0 0.0
2017-Sep-14 17:01N 39°43' W 075°30'0 0.0
2017-Sep-14 16:31N 39°43' W 075°30'0 0.0
2017-Sep-14 16:01N 39°43' W 075°30'0 0.0
2017-Sep-14 15:31N 39°43' W 075°30'0 0.0
2017-Sep-14 15:01N 39°43' W 075°30'0 0.0
2017-Sep-14 14:30N 39°43' W 075°30'0 0.0
2017-Sep-14 14:00N 39°43' W 075°30'0 0.2
2017-Sep-14 13:30N 39°43' W 075°30'0 0.2
2017-Sep-14 13:00N 39°43' W 075°30'0 0.0
2017-Sep-14 12:30N 39°43' W 075°30'0 0.0
2017-Sep-14 12:00N 39°43' W 075°30'0 0.0
2017-Sep-14 11:30N 39°43' W 075°30'0 0.0
2017-Sep-14 11:00N 39°43' W 075°30'0 0.0
2017-Sep-14 10:30N 39°43' W 075°30'0 0.0
2017-Sep-14 10:00N 39°43' W 075°30'0 0.0
2017-Sep-14 09:30N 39°43' W 075°30'0 0.0
2017-Sep-14 09:00N 39°43' W 075°30'0 0.0
2017-Sep-14 08:30N 39°43' W 075°30'0 0.0
2017-Sep-14 07:58N 39°43' W 075°30'0 0.0
2017-Sep-14 07:30N 39°43' W 075°30'0 0.3
2017-Sep-14 07:00N 39°43' W 075°30'0 0.2
2017-Sep-14 06:30N 39°43' W 075°30'0 0.0
2017-Sep-14 06:00N 39°43' W 075°30'0 0.0
2017-Sep-14 05:30N 39°43' W 075°30'0 0.0
2017-Sep-14 05:00N 39°43' W 075°30'0 0.0
2017-Sep-14 04:30N 39°43' W 075°30'0 0.0
2017-Sep-14 04:00N 39°43' W 075°30'0 0.0
2017-Sep-14 03:30N 39°43' W 075°30'0 0.0
2017-Sep-14 03:00N 39°43' W 075°30'0 0.0
2017-Sep-14 02:30N 39°43' W 075°30'0 0.0
2017-Sep-14 02:00N 39°43' W 075°30'0 0.0
2017-Sep-14 01:30N 39°43' W 075°30'0 0.0
2017-Sep-14 01:00N 39°43' W 075°30'0 0.2
2017-Sep-14 00:30N 39°43' W 075°30'0 0.3
2017-Sep-14 00:00N 39°43' W 075°30'0 0.0
2017-Sep-13 23:30N 39°43' W 075°30'0 0.0
2017-Sep-13 23:01N 39°43' W 075°30'0 0.0
2017-Sep-13 22:30N 39°43' W 075°30'0 0.0
2017-Sep-13 22:01N 39°43' W 075°30'0 0.0
2017-Sep-13 21:30N 39°43' W 075°30'0 0.0
2017-Sep-13 21:00N 39°43' W 075°30'0 0.0
2017-Sep-13 20:27N 39°43' W 075°30'0 0.0
2017-Sep-13 20:00N 39°43' W 075°30'0 0.0
2017-Sep-13 19:30N 39°43' W 075°30'0 0.0
2017-Sep-13 19:00N 39°43' W 075°30'0 0.0
2017-Sep-13 18:30N 39°43' W 075°30'0 0.3
2017-Sep-13 18:00N 39°43' W 075°30'0 0.2
2017-Sep-13 17:30N 39°43' W 075°30'0 0.0
2017-Sep-13 17:00N 39°43' W 075°30'0 0.0
2017-Sep-13 16:30N 39°43' W 075°30'0 0.0
2017-Sep-13 15:58N 39°43' W 075°30'0 0.0
2017-Sep-13 15:30N 39°43' W 075°30'0 0.0
2017-Sep-13 15:00N 39°43' W 075°30'0 0.0
2017-Sep-13 14:30N 39°43' W 075°30'0 0.0
2017-Sep-13 14:00N 39°43' W 075°30'0 0.0
2017-Sep-13 13:30N 39°43' W 075°30'0 0.0
2017-Sep-13 13:00N 39°43' W 075°30'0 0.0
2017-Sep-13 12:30N 39°43' W 075°30'0 0.3
2017-Sep-13 12:00N 39°43' W 075°30'0 0.1
2017-Sep-13 11:30N 39°43' W 075°30'0 0.0
2017-Sep-13 11:00N 39°43' W 075°30'0 0.0
2017-Sep-13 10:27N 39°43' W 075°30'0 0.0
2017-Sep-13 10:00N 39°43' W 075°30'0 0.0
2017-Sep-13 09:30N 39°43' W 075°30'0 0.0
2017-Sep-13 09:00N 39°43' W 075°30'0 0.0
2017-Sep-13 08:30N 39°43' W 075°30'0 0.0
2017-Sep-13 08:00N 39°43' W 075°30'0 0.0
2017-Sep-13 07:27N 39°43' W 075°30'0 0.0
2017-Sep-13 07:00N 39°43' W 075°30'0 0.0
2017-Sep-13 06:30N 39°43' W 075°30'0 0.3
2017-Sep-13 06:00N 39°43' W 075°30'0 0.2
2017-Sep-13 05:30N 39°43' W 075°30'0 0.1
2017-Sep-13 05:00N 39°43' W 075°30'0 0.0
2017-Sep-13 04:30N 39°43' W 075°30'0 0.0
2017-Sep-13 04:00N 39°43' W 075°30'0 0.0
2017-Sep-13 03:30N 39°43' W 075°30'0 0.0
2017-Sep-13 03:00N 39°43' W 075°30'0 0.0
2017-Sep-13 02:30N 39°43' W 075°30'0 0.0
2017-Sep-13 02:00N 39°43' W 075°30'0 0.0
2017-Sep-13 01:30N 39°43' W 075°30'0 0.0
2017-Sep-13 01:00N 39°43' W 075°30'0 0.0
2017-Sep-13 00:30N 39°43' W 075°30'0 0.1
2017-Sep-13 00:00N 39°43' W 075°30'0 0.3
2017-Sep-12 23:30N 39°43' W 075°30'0 0.1
2017-Sep-12 22:57N 39°43' W 075°30'0 0.0
2017-Sep-12 22:30N 39°43' W 075°30'0 0.0
2017-Sep-12 22:00N 39°43' W 075°30'0 0.0
2017-Sep-12 21:30N 39°43' W 075°30'0 0.0
2017-Sep-12 21:00N 39°43' W 075°30'0 0.0
2017-Sep-12 20:31N 39°43' W 075°30'0 0.0
2017-Sep-12 20:01N 39°43' W 075°30'0 0.5
2017-Sep-12 19:30N 39°43' W 075°30'2 4.7
2017-Sep-12 19:00N 39°41' W 075°31'4 7.8
2017-Sep-12 18:31N 39°38' W 075°34'4 7.7
2017-Sep-12 18:01N 39°34' W 075°33'1 2.5
2017-Sep-12 17:28N 39°33' W 075°33'0 0.0
2017-Sep-12 16:58N 39°33' W 075°33'0 0.3
2017-Sep-12 16:28N 39°33' W 075°33'0 0.2
2017-Sep-12 15:58N 39°32' W 075°33'0 0.1
2017-Sep-12 15:28N 39°32' W 075°33'0 0.0
2017-Sep-12 14:58N 39°32' W 075°33'0 0.0
2017-Sep-12 14:28N 39°32' W 075°33'0 0.0
2017-Sep-12 13:58N 39°32' W 075°33'0 0.0
2017-Sep-12 13:28N 39°32' W 075°33'0 0.0
2017-Sep-12 12:58N 39°32' W 075°33'0 0.1
2017-Sep-12 09:14N 39°33' W 075°33'0 0.0
2017-Sep-12 08:59N 39°33' W 075°33'0 0.0
2017-Sep-12 08:29N 39°33' W 075°33'0 0.0
2017-Sep-12 07:59N 39°33' W 075°33'0 0.0
2017-Sep-12 07:29N 39°33' W 075°33'0 0.0
2017-Sep-12 06:59N 39°33' W 075°33'0 0.0
2017-Sep-12 06:29N 39°33' W 075°33'0 0.0
2017-Sep-12 05:59N 39°33' W 075°33'0 0.0
2017-Sep-12 05:29N 39°33' W 075°33'0 0.0
2017-Sep-12 04:59N 39°33' W 075°33'0 0.2
2017-Sep-12 04:29N 39°33' W 075°33'0 0.2
2017-Sep-12 03:59N 39°32' W 075°33'0 0.0
2017-Sep-12 03:29N 39°32' W 075°33'0 0.0
2017-Sep-12 02:59N 39°32' W 075°33'0 0.0
2017-Sep-12 02:29N 39°32' W 075°33'0 0.0
2017-Sep-12 01:59N 39°32' W 075°33'0 0.0
2017-Sep-12 01:29N 39°32' W 075°33'0 0.0
2017-Sep-12 00:59N 39°32' W 075°33'0 0.0
2017-Sep-12 00:29N 39°32' W 075°33'0 0.0
2017-Sep-11 23:59N 39°32' W 075°33'0 0.0
2017-Sep-11 23:29N 39°32' W 075°33'0 0.0
2017-Sep-11 22:59N 39°32' W 075°33'0 0.1
2017-Sep-11 22:29N 39°32' W 075°33'0 0.0
2017-Sep-11 21:59N 39°32' W 075°33'0 0.3
2017-Sep-11 21:29N 39°33' W 075°33'0 0.2
2017-Sep-11 20:59N 39°33' W 075°33'0 0.1
2017-Sep-11 20:29N 39°33' W 075°33'0 0.0
2017-Sep-11 19:59N 39°33' W 075°33'0 0.0
2017-Sep-11 19:29N 39°33' W 075°33'0 0.0
2017-Sep-11 18:59N 39°33' W 075°33'0 0.0
2017-Sep-11 18:29N 39°33' W 075°33'0 0.0
2017-Sep-11 17:59N 39°33' W 075°33'0 0.0
2017-Sep-11 17:29N 39°33' W 075°33'0 0.0
2017-Sep-11 16:59N 39°33' W 075°33'0 0.0
2017-Sep-11 16:29N 39°33' W 075°33'0 0.2
2017-Sep-11 15:59N 39°33' W 075°33'0 0.3
2017-Sep-11 15:29N 39°32' W 075°33'0 0.1
2017-Sep-11 14:59N 39°32' W 075°33'0 0.0
2017-Sep-11 14:29N 39°32' W 075°33'0 0.0
2017-Sep-11 13:59N 39°32' W 075°33'0 0.0
2017-Sep-11 13:29N 39°32' W 075°33'0 0.0
2017-Sep-11 12:59N 39°32' W 075°33'0 0.0
2017-Sep-11 12:29N 39°32' W 075°33'0 0.0
2017-Sep-11 11:59N 39°32' W 075°33'0 0.0
2017-Sep-11 11:29N 39°32' W 075°33'0 0.0
2017-Sep-11 10:59N 39°32' W 075°33'0 0.0
2017-Sep-11 10:29N 39°32' W 075°33'0 0.0
2017-Sep-11 09:59N 39°32' W 075°33'0 0.0
2017-Sep-11 09:29N 39°32' W 075°33'0 0.1
2017-Sep-11 08:59N 39°32' W 075°33'0 0.3
2017-Sep-11 08:29N 39°33' W 075°33'0 0.1
2017-Sep-11 07:59N 39°33' W 075°33'0 0.0
2017-Sep-11 07:29N 39°33' W 075°33'0 0.0
2017-Sep-11 06:59N 39°33' W 075°33'0 0.0
2017-Sep-11 06:29N 39°33' W 075°33'0 0.0
2017-Sep-11 05:59N 39°33' W 075°33'0 0.0
2017-Sep-11 05:29N 39°33' W 075°33'0 0.0
2017-Sep-11 04:59N 39°33' W 075°33'0 0.0
2017-Sep-11 04:29N 39°33' W 075°33'0 0.0
2017-Sep-11 03:59N 39°33' W 075°33'0 0.2
2017-Sep-11 03:29N 39°33' W 075°33'0 0.3
2017-Sep-11 02:59N 39°32' W 075°33'0 0.1
2017-Sep-11 02:29N 39°32' W 075°33'0 0.0
2017-Sep-11 01:59N 39°32' W 075°33'0 0.0
2017-Sep-11 01:29N 39°32' W 075°33'0 0.0
2017-Sep-11 00:59N 39°32' W 075°33'0 0.0
2017-Sep-11 00:29N 39°32' W 075°33'0 0.0
2017-Sep-10 23:59N 39°32' W 075°33'0 0.0
2017-Sep-10 23:29N 39°32' W 075°33'0 0.0
2017-Sep-10 22:59N 39°32' W 075°33'0 0.0
2017-Sep-10 22:29N 39°32' W 075°33'0 0.0
2017-Sep-10 21:59N 39°32' W 075°33'0 0.0
2017-Sep-10 21:29N 39°32' W 075°33'0 0.1
2017-Sep-10 20:59N 39°32' W 075°33'0 0.4
2017-Sep-10 20:29N 39°33' W 075°33'0 0.1
2017-Sep-10 19:59N 39°33' W 075°33'0 0.0
2017-Sep-10 19:29N 39°33' W 075°33'0 0.0
2017-Sep-10 18:59N 39°33' W 075°33'0 0.0
2017-Sep-10 18:29N 39°33' W 075°33'0 0.0
2017-Sep-10 17:59N 39°33' W 075°33'0 0.0
2017-Sep-10 17:29N 39°33' W 075°33'0 0.0
2017-Sep-10 16:59N 39°33' W 075°33'0 0.0
2017-Sep-10 16:29N 39°33' W 075°33'0 0.0
2017-Sep-10 15:59N 39°33' W 075°33'0 0.1
2017-Sep-10 15:29N 39°33' W 075°33'0 0.3
2017-Sep-10 14:59N 39°33' W 075°33'0 0.1
2017-Sep-10 13:59N 39°32' W 075°33'0 0.0
2017-Sep-10 13:29N 39°32' W 075°33'0 0.0
2017-Sep-10 12:59N 39°32' W 075°33'0 0.0
2017-Sep-10 12:28N 39°32' W 075°33'0 0.0
2017-Sep-10 11:58N 39°32' W 075°33'0 0.0
2017-Sep-10 11:28N 39°32' W 075°33'0 0.0
2017-Sep-10 10:58N 39°32' W 075°33'0 0.0
2017-Sep-10 10:28N 39°32' W 075°33'0 0.0
2017-Sep-10 09:58N 39°32' W 075°33'0 0.0
2017-Sep-10 09:28N 39°32' W 075°33'0 0.1
2017-Sep-10 08:58N 39°32' W 075°33'0 0.1
2017-Sep-10 08:28N 39°32' W 075°33'0 0.2
2017-Sep-10 07:58N 39°32' W 075°33'0 0.3
2017-Sep-10 07:28N 39°33' W 075°33'0 0.1
2017-Sep-10 06:58N 39°33' W 075°33'0 0.0
2017-Sep-10 06:28N 39°33' W 075°33'0 0.0
2017-Sep-10 05:58N 39°33' W 075°33'0 0.0
2017-Sep-10 05:28N 39°33' W 075°33'0 0.0
2017-Sep-10 04:58N 39°33' W 075°33'0 0.0
2017-Sep-10 04:28N 39°33' W 075°33'0 0.0
2017-Sep-10 03:58N 39°33' W 075°33'0 0.1
2017-Sep-10 03:28N 39°33' W 075°33'0 0.2
2017-Sep-10 02:58N 39°33' W 075°33'0 0.1
2017-Sep-10 02:28N 39°32' W 075°33'0 0.1
2017-Sep-10 01:58N 39°32' W 075°33'0 0.9
2017-Sep-10 01:30N 39°33' W 075°33'4 7.8
2017-Sep-10 01:00N 39°33' W 075°38'5 9.5
2017-Sep-10 00:30N 39°33' W 075°44'4 8.6
2017-Sep-10 00:00N 39°32' W 075°49'4 8.1
2017-Sep-09 23:30N 39°31' W 075°54'4 8.5
2017-Sep-09 23:00N 39°28' W 075°58'4 8.6
2017-Sep-09 22:30N 39°25' W 076°02'4 8.3
2017-Sep-09 22:00N 39°23' W 076°07'  
Track history (hours):
 
Tides and Currents Weather Stations Pressure Air Temp Water Temp Dewpoint Dewpoint Depression Visibility Wind Speed Wind Dir Waves Ship Positions

Gulf Service

Owner: Genesis Marine, LLC, Houston, TX. More information available from US FCC via Universal Licensing System and Coast Guard Vessel Documentation Center.

Last reported at 2017-Sep-19 22:00 UTC. Time now 2017-Sep-19 22:23 UTC.
Position N 39°52' W 075°13'.

Length 36 m; draft 4.9 m.

Type: Towing. MMSI: 367586910.

Date/timePositionNaut miles runAvg speedWind from/ knotsBaromVisibWave heightAir tempDewpointWater temp
2017-Sep-19 22:00N 39°52' W 075°13'0 0.0
2017-Sep-19 21:30N 39°52' W 075°13'0 0.0
2017-Sep-19 21:00N 39°52' W 075°13'0 0.0
2017-Sep-19 20:30N 39°52' W 075°13'0 0.0
2017-Sep-19 20:00N 39°52' W 075°13'0 0.0
2017-Sep-19 19:30N 39°52' W 075°13'0 0.0
2017-Sep-19 19:00N 39°52' W 075°13'0 0.0
2017-Sep-19 18:30N 39°52' W 075°13'0 0.2
2017-Sep-19 18:00N 39°52' W 075°13'0 0.1
2017-Sep-19 17:30N 39°52' W 075°13'0 0.0
2017-Sep-19 17:00N 39°52' W 075°13'0 0.0
2017-Sep-19 16:30N 39°52' W 075°13'0 0.0
2017-Sep-19 16:00N 39°52' W 075°13'0 0.0
2017-Sep-19 15:30N 39°52' W 075°13'0 0.0
2017-Sep-19 15:00N 39°52' W 075°13'0 0.1
2017-Sep-19 14:30N 39°52' W 075°13'0 0.1
2017-Sep-19 14:00N 39°52' W 075°13'0 0.1
2017-Sep-19 13:30N 39°52' W 075°13'0 0.2
2017-Sep-19 13:00N 39°52' W 075°13'0 0.1
2017-Sep-19 12:30N 39°52' W 075°13'0 0.0
2017-Sep-19 12:00N 39°52' W 075°13'0 0.0
2017-Sep-19 11:30N 39°52' W 075°13'0 0.0
2017-Sep-19 11:00N 39°52' W 075°13'0 0.0
2017-Sep-19 10:30N 39°52' W 075°13'0 0.0
2017-Sep-19 10:00N 39°52' W 075°13'0 0.0
2017-Sep-19 09:30N 39°52' W 075°13'0 0.0
2017-Sep-19 09:01N 39°52' W 075°13'0 0.0
2017-Sep-19 08:30N 39°52' W 075°13'1 1.8
2017-Sep-19 08:00N 39°51' W 075°14'4 7.6
2017-Sep-19 07:31N 39°51' W 075°19'4 7.3
2017-Sep-19 07:01N 39°49' W 075°23'0 0.7
2017-Sep-19 06:30N 39°49' W 075°24'0 0.2
2017-Sep-19 06:00N 39°49' W 075°24'0 0.3
2017-Sep-19 05:30N 39°49' W 075°23'0 0.1
2017-Sep-19 05:00N 39°49' W 075°23'0 0.0
2017-Sep-19 04:29N 39°49' W 075°23'0 0.0
2017-Sep-19 03:59N 39°49' W 075°23'0 0.0
2017-Sep-19 03:29N 39°49' W 075°23'0 0.0
2017-Sep-19 02:59N 39°49' W 075°23'0 0.0
2017-Sep-19 02:29N 39°49' W 075°23'0 0.0
2017-Sep-19 01:59N 39°49' W 075°23'0 0.1
2017-Sep-19 01:29N 39°49' W 075°23'0 0.0
2017-Sep-19 00:59N 39°49' W 075°23'0 0.2
2017-Sep-19 00:29N 39°49' W 075°24'0 0.3
2017-Sep-18 23:59N 39°49' W 075°24'0 0.2
2017-Sep-18 23:30N 39°49' W 075°24'1 1.1
2017-Sep-18 23:00N 39°48' W 075°24'0 0.6
2017-Sep-18 22:30N 39°49' W 075°24'3 6.8
2017-Sep-18 22:01N 39°51' W 075°21'3 6.8
2017-Sep-18 21:30N 39°51' W 075°16'2 4.4
2017-Sep-18 21:00N 39°52' W 075°14'0 0.0
2017-Sep-18 20:31N 39°52' W 075°14'0 0.0
2017-Sep-18 19:58N 39°52' W 075°14'0 0.0
2017-Sep-18 19:28N 39°52' W 075°14'0 0.0
2017-Sep-18 18:58N 39°52' W 075°14'0 0.1
2017-Sep-18 18:28N 39°52' W 075°14'0 0.4
2017-Sep-18 17:58N 39°52' W 075°13'0 0.1
2017-Sep-18 17:28N 39°52' W 075°13'0 0.0
2017-Sep-18 16:58N 39°52' W 075°13'0 0.0
2017-Sep-18 16:28N 39°52' W 075°13'0 0.0
2017-Sep-18 15:58N 39°52' W 075°13'0 0.0
2017-Sep-18 15:28N 39°52' W 075°13'0 0.0
2017-Sep-18 14:58N 39°52' W 075°13'0 0.0
2017-Sep-18 14:28N 39°52' W 075°13'0 0.0
2017-Sep-18 13:58N 39°52' W 075°13'0 0.0
2017-Sep-18 13:28N 39°52' W 075°13'0 0.3
2017-Sep-18 12:58N 39°52' W 075°13'0 0.4
2017-Sep-18 12:28N 39°52' W 075°14'0 0.0
2017-Sep-18 11:58N 39°52' W 075°14'0 0.1
2017-Sep-18 11:28N 39°52' W 075°14'0 0.1
2017-Sep-18 10:58N 39°52' W 075°14'0 0.0
2017-Sep-18 10:28N 39°52' W 075°14'0 0.0
2017-Sep-18 09:58N 39°52' W 075°14'0 0.0
2017-Sep-18 09:28N 39°52' W 075°14'0 0.0
2017-Sep-18 08:58N 39°52' W 075°14'0 0.0
2017-Sep-18 08:28N 39°52' W 075°14'0 0.0
2017-Sep-18 07:58N 39°52' W 075°14'0 0.0
2017-Sep-18 07:28N 39°52' W 075°14'0 0.1
2017-Sep-18 06:58N 39°52' W 075°14'0 0.0
2017-Sep-18 06:30N 39°52' W 075°14'0 0.6
2017-Sep-18 06:01N 39°51' W 075°14'0 0.9
2017-Sep-18 05:31N 39°52' W 075°14'2 3.8
2017-Sep-18 05:01N 39°51' W 075°16'4 8.1
2017-Sep-18 04:30N 39°50' W 075°21'4 8.3
2017-Sep-18 04:01N 39°48' W 075°25'4 8.5
2017-Sep-18 03:31N 39°45' W 075°29'4 8.9
2017-Sep-18 03:01N 39°41' W 075°31'4 8.8
2017-Sep-18 02:31N 39°37' W 075°35'4 7.1
2017-Sep-18 01:59N 39°34' W 075°33'2 4.3
2017-Sep-18 01:30N 39°35' W 075°35'0 0.5
2017-Sep-18 01:00N 39°35' W 075°36'0 0.0
2017-Sep-18 00:30N 39°35' W 075°36'0 0.0
2017-Sep-18 00:00N 39°35' W 075°36'0 0.0
2017-Sep-17 23:30N 39°35' W 075°36'0 0.0
2017-Sep-17 23:00N 39°35' W 075°36'0 0.0
2017-Sep-17 22:30N 39°35' W 075°36'0 0.0
2017-Sep-17 22:00N 39°35' W 075°36'0 0.0
2017-Sep-17 21:30N 39°35' W 075°36'0 0.0
2017-Sep-17 21:00N 39°35' W 075°36'0 0.0
2017-Sep-17 20:30N 39°35' W 075°36'0 0.0
2017-Sep-17 20:00N 39°35' W 075°36'0 0.0
2017-Sep-17 19:30N 39°35' W 075°36'0 0.0
2017-Sep-17 19:00N 39°35' W 075°36'0 0.0
2017-Sep-17 18:30N 39°35' W 075°36'0 0.0
2017-Sep-17 18:00N 39°35' W 075°36'0 0.0
2017-Sep-17 17:30N 39°35' W 075°36'0 0.0
2017-Sep-17 17:00N 39°35' W 075°36'0 0.0
2017-Sep-17 16:30N 39°35' W 075°36'0 0.0
2017-Sep-17 16:00N 39°35' W 075°36'0 0.0
2017-Sep-17 15:30N 39°35' W 075°36'0 0.0
2017-Sep-17 15:00N 39°35' W 075°36'0 0.0
2017-Sep-17 14:30N 39°35' W 075°36'0 0.0
2017-Sep-17 14:00N 39°35' W 075°36'0 0.0
2017-Sep-17 13:30N 39°35' W 075°36'0 0.0
2017-Sep-17 13:00N 39°35' W 075°36'0 0.0
2017-Sep-17 12:30N 39°35' W 075°36'0 0.0
2017-Sep-17 12:00N 39°35' W 075°36'0 0.0
2017-Sep-17 11:30N 39°35' W 075°36'0 0.0
2017-Sep-17 11:00N 39°35' W 075°36'0 0.0
2017-Sep-17 10:30N 39°35' W 075°36'0 0.0
2017-Sep-17 10:00N 39°35' W 075°36'0 0.0
2017-Sep-17 09:30N 39°35' W 075°36'0 0.0
2017-Sep-17 09:00N 39°35' W 075°36'0 0.0
2017-Sep-17 08:30N 39°35' W 075°36'0 0.0
2017-Sep-17 08:00N 39°35' W 075°36'0 0.0
2017-Sep-17 07:30N 39°35' W 075°36'0 0.0
2017-Sep-17 07:00N 39°35' W 075°36'0 0.0
2017-Sep-17 06:30N 39°35' W 075°36'0 0.0
2017-Sep-17 06:00N 39°35' W 075°36'0 0.0
2017-Sep-17 05:30N 39°35' W 075°36'0 0.0
2017-Sep-17 05:00N 39°35' W 075°36'0 0.0
2017-Sep-17 04:30N 39°35' W 075°36'0 0.0
2017-Sep-17 04:00N 39°35' W 075°36'0 0.0
2017-Sep-17 03:30N 39°35' W 075°36'0 0.0
2017-Sep-17 03:00N 39°35' W 075°36'0 0.0
2017-Sep-17 02:30N 39°35' W 075°36'0 0.0
2017-Sep-17 02:00N 39°35' W 075°36'0 0.0
2017-Sep-17 01:30N 39°35' W 075°36'0 0.0
2017-Sep-17 01:00N 39°35' W 075°36'0 0.0
2017-Sep-17 00:30N 39°35' W 075°36'0 0.0
2017-Sep-17 00:00N 39°35' W 075°36'0 0.0
2017-Sep-16 23:30N 39°35' W 075°36'0 0.0
2017-Sep-16 23:00N 39°35' W 075°36'0 0.0
2017-Sep-16 22:30N 39°35' W 075°36'0 0.0
2017-Sep-16 22:00N 39°35' W 075°36'0 0.0
2017-Sep-16 21:30N 39°35' W 075°36'0 0.0
2017-Sep-16 21:00N 39°35' W 075°36'0 0.0
2017-Sep-16 20:30N 39°35' W 075°36'0 0.0
2017-Sep-16 20:00N 39°35' W 075°36'0 0.0
2017-Sep-16 19:30N 39°35' W 075°36'0 0.0
2017-Sep-16 19:00N 39°35' W 075°36'0 0.0
2017-Sep-16 18:31N 39°35' W 075°36'0 0.0
2017-Sep-16 18:00N 39°35' W 075°36'0 0.0
2017-Sep-16 17:27N 39°35' W 075°36'0 0.0
2017-Sep-16 17:00N 39°35' W 075°36'0 0.0
2017-Sep-16 16:30N 39°35' W 075°36'0 0.0
2017-Sep-16 16:00N 39°35' W 075°36'0 0.0
2017-Sep-16 15:30N 39°35' W 075°36'0 0.0
2017-Sep-16 15:00N 39°35' W 075°36'0 0.0
2017-Sep-16 14:30N 39°35' W 075°36'0 0.0
2017-Sep-16 14:00N 39°35' W 075°36'1 3.0
2017-Sep-16 13:30N 39°34' W 075°34'2 3.1
2017-Sep-16 13:00N 39°33' W 075°33'2 4.4
2017-Sep-16 12:30N 39°35' W 075°34'3 6.8
2017-Sep-16 12:00N 39°39' W 075°34'4 7.5
2017-Sep-16 11:31N 39°42' W 075°31'1 2.9
2017-Sep-16 11:01N 39°43' W 075°30'0 0.1
2017-Sep-16 10:30N 39°43' W 075°30'0 0.0
2017-Sep-16 09:58N 39°43' W 075°30'0 0.3
2017-Sep-16 09:28N 39°43' W 075°30'0 0.2
2017-Sep-16 08:58N 39°43' W 075°30'0 0.0
2017-Sep-16 08:28N 39°43' W 075°30'0 0.0
2017-Sep-16 07:58N 39°43' W 075°30'0 0.0
2017-Sep-16 07:28N 39°43' W 075°30'0 0.0
2017-Sep-16 06:58N 39°43' W 075°30'0 0.0
2017-Sep-16 06:28N 39°43' W 075°30'0 0.0
2017-Sep-16 05:58N 39°43' W 075°30'0 0.0
2017-Sep-16 05:28N 39°43' W 075°30'0 0.0
2017-Sep-16 04:58N 39°43' W 075°30'0 0.0
2017-Sep-16 04:28N 39°43' W 075°30'0 0.0
2017-Sep-16 03:58N 39°43' W 075°30'0 0.0
2017-Sep-16 03:28N 39°43' W 075°30'0 0.2
2017-Sep-16 02:58N 39°43' W 075°30'0 0.4
2017-Sep-16 02:28N 39°43' W 075°30'0 0.0
2017-Sep-16 01:58N 39°43' W 075°30'0 0.0
2017-Sep-16 01:28N 39°43' W 075°30'0 0.0
2017-Sep-16 00:58N 39°43' W 075°30'0 0.0
2017-Sep-16 00:28N 39°43' W 075°30'0 0.0
2017-Sep-15 23:55N 39°43' W 075°30'0 0.0
2017-Sep-15 23:28N 39°43' W 075°30'0 0.0
2017-Sep-15 22:58N 39°43' W 075°30'0 0.0
2017-Sep-15 22:28N 39°43' W 075°30'0 0.0
2017-Sep-15 21:58N 39°43' W 075°30'0 0.0
2017-Sep-15 21:28N 39°43' W 075°30'0 0.0
2017-Sep-15 20:58N 39°43' W 075°30'0 0.0
2017-Sep-15 20:28N 39°43' W 075°30'0 0.2
2017-Sep-15 19:58N 39°43' W 075°30'0 0.2
2017-Sep-15 19:28N 39°43' W 075°30'0 0.0
2017-Sep-15 18:58N 39°43' W 075°30'0 0.0
2017-Sep-15 18:28N 39°43' W 075°30'0 0.0
2017-Sep-15 17:58N 39°43' W 075°30'0 0.0
2017-Sep-15 17:28N 39°43' W 075°30'0 0.0
2017-Sep-15 16:58N 39°43' W 075°30'0 0.0
2017-Sep-15 16:28N 39°43' W 075°30'0 0.0
2017-Sep-15 15:58N 39°43' W 075°30'0 0.0
2017-Sep-15 15:28N 39°43' W 075°30'0 0.0
2017-Sep-15 14:58N 39°43' W 075°30'0 0.1
2017-Sep-15 14:28N 39°43' W 075°30'0 0.3
2017-Sep-15 13:58N 39°43' W 075°30'0 0.1
2017-Sep-15 13:28N 39°43' W 075°30'0 0.0
2017-Sep-15 12:58N 39°43' W 075°30'0 0.0
2017-Sep-15 12:28N 39°43' W 075°30'0 0.0
2017-Sep-15 11:58N 39°43' W 075°30'0 0.0
2017-Sep-15 11:28N 39°43' W 075°30'0 0.0
2017-Sep-15 10:58N 39°43' W 075°30'0 0.0
2017-Sep-15 10:28N 39°43' W 075°30'0 0.0
2017-Sep-15 09:58N 39°43' W 075°30'0 0.0
2017-Sep-15 09:28N 39°43' W 075°30'0 0.0
2017-Sep-15 08:58N 39°43' W 075°30'0 0.1
2017-Sep-15 08:28N 39°43' W 075°30'0 0.3
2017-Sep-15 07:58N 39°43' W 075°30'0 0.1
2017-Sep-15 07:28N 39°43' W 075°30'0 0.0
2017-Sep-15 06:58N 39°43' W 075°30'0 0.0
2017-Sep-15 06:28N 39°43' W 075°30'0 0.0
2017-Sep-15 05:58N 39°43' W 075°30'0 0.0
2017-Sep-15 05:25N 39°43' W 075°30'0 0.0
2017-Sep-15 04:58N 39°43' W 075°30'0 0.0
2017-Sep-15 04:28N 39°43' W 075°30'0 0.0
2017-Sep-15 03:58N 39°43' W 075°30'0 0.0
2017-Sep-15 03:28N 39°43' W 075°30'0 0.0
2017-Sep-15 02:58N 39°43' W 075°30'0 0.0
2017-Sep-15 02:28N 39°43' W 075°30'0 0.0
2017-Sep-15 01:58N 39°43' W 075°30'0 0.3
2017-Sep-15 01:28N 39°43' W 075°30'0 0.1
2017-Sep-15 00:58N 39°43' W 075°30'0 0.0
2017-Sep-15 00:28N 39°43' W 075°30'0 0.0
2017-Sep-14 23:58N 39°43' W 075°30'0 0.0
2017-Sep-14 23:31N 39°43' W 075°30'0 0.0
2017-Sep-14 23:01N 39°43' W 075°30'0 0.0
2017-Sep-14 22:25N 39°43' W 075°30'0 0.0
2017-Sep-14 21:58N 39°43' W 075°30'0 0.0
2017-Sep-14 21:31N 39°43' W 075°30'0 0.0
2017-Sep-14 21:01N 39°43' W 075°30'0 0.0
2017-Sep-14 20:31N 39°43' W 075°30'0 0.0
2017-Sep-14 20:01N 39°43' W 075°30'0 0.0
2017-Sep-14 19:31N 39°43' W 075°30'0 0.2
2017-Sep-14 19:01N 39°43' W 075°30'0 0.3
2017-Sep-14 18:31N 39°43' W 075°30'0 0.1
2017-Sep-14 18:00N 39°43' W 075°30'0 0.0
2017-Sep-14 17:31N 39°43' W 075°30'0 0.0
2017-Sep-14 17:01N 39°43' W 075°30'0 0.0
2017-Sep-14 16:31N 39°43' W 075°30'0 0.0
2017-Sep-14 16:01N 39°43' W 075°30'0 0.0
2017-Sep-14 15:31N 39°43' W 075°30'0 0.0
2017-Sep-14 15:01N 39°43' W 075°30'0 0.0
2017-Sep-14 14:30N 39°43' W 075°30'0 0.0
2017-Sep-14 14:00N 39°43' W 075°30'0 0.2
2017-Sep-14 13:30N 39°43' W 075°30'0 0.2
2017-Sep-14 13:00N 39°43' W 075°30'0 0.0
2017-Sep-14 12:30N 39°43' W 075°30'0 0.0
2017-Sep-14 12:00N 39°43' W 075°30'0 0.0
2017-Sep-14 11:30N 39°43' W 075°30'0 0.0
2017-Sep-14 11:00N 39°43' W 075°30'0 0.0
2017-Sep-14 10:30N 39°43' W 075°30'0 0.0
2017-Sep-14 10:00N 39°43' W 075°30'0 0.0
2017-Sep-14 09:30N 39°43' W 075°30'0 0.0
2017-Sep-14 09:00N 39°43' W 075°30'0 0.0
2017-Sep-14 08:30N 39°43' W 075°30'0 0.0
2017-Sep-14 07:58N 39°43' W 075°30'0 0.0
2017-Sep-14 07:30N 39°43' W 075°30'0 0.3
2017-Sep-14 07:00N 39°43' W 075°30'0 0.2
2017-Sep-14 06:30N 39°43' W 075°30'0 0.0
2017-Sep-14 06:00N 39°43' W 075°30'0 0.0
2017-Sep-14 05:30N 39°43' W 075°30'0 0.0
2017-Sep-14 05:00N 39°43' W 075°30'0 0.0
2017-Sep-14 04:30N 39°43' W 075°30'0 0.0
2017-Sep-14 04:00N 39°43' W 075°30'0 0.0
2017-Sep-14 03:30N 39°43' W 075°30'0 0.0
2017-Sep-14 03:00N 39°43' W 075°30'0 0.0
2017-Sep-14 02:30N 39°43' W 075°30'0 0.0
2017-Sep-14 02:00N 39°43' W 075°30'0 0.0
2017-Sep-14 01:30N 39°43' W 075°30'0 0.0
2017-Sep-14 01:00N 39°43' W 075°30'0 0.2
2017-Sep-14 00:30N 39°43' W 075°30'0 0.3
2017-Sep-14 00:00N 39°43' W 075°30'0 0.0
2017-Sep-13 23:30N 39°43' W 075°30'0 0.0
2017-Sep-13 23:01N 39°43' W 075°30'0 0.0
2017-Sep-13 22:30N 39°43' W 075°30'0 0.0
2017-Sep-13 22:01N 39°43' W 075°30'0 0.0
2017-Sep-13 21:30N 39°43' W 075°30'0 0.0
2017-Sep-13 21:00N 39°43' W 075°30'0 0.0
2017-Sep-13 20:27N 39°43' W 075°30'0 0.0
2017-Sep-13 20:00N 39°43' W 075°30'0 0.0
2017-Sep-13 19:30N 39°43' W 075°30'0 0.0
2017-Sep-13 19:00N 39°43' W 075°30'0 0.0
2017-Sep-13 18:30N 39°43' W 075°30'0 0.3
2017-Sep-13 18:00N 39°43' W 075°30'0 0.2
2017-Sep-13 17:30N 39°43' W 075°30'0 0.0
2017-Sep-13 17:00N 39°43' W 075°30'0 0.0
2017-Sep-13 16:30N 39°43' W 075°30'0 0.0
2017-Sep-13 15:58N 39°43' W 075°30'0 0.0
2017-Sep-13 15:30N 39°43' W 075°30'0 0.0
2017-Sep-13 15:00N 39°43' W 075°30'0 0.0
2017-Sep-13 14:30N 39°43' W 075°30'0 0.0
2017-Sep-13 14:00N 39°43' W 075°30'0 0.0
2017-Sep-13 13:30N 39°43' W 075°30'0 0.0
2017-Sep-13 13:00N 39°43' W 075°30'0 0.0
2017-Sep-13 12:30N 39°43' W 075°30'0 0.3
2017-Sep-13 12:00N 39°43' W 075°30'0 0.1
2017-Sep-13 11:30N 39°43' W 075°30'0 0.0
2017-Sep-13 11:00N 39°43' W 075°30'0 0.0
2017-Sep-13 10:27N 39°43' W 075°30'0 0.0
2017-Sep-13 10:00N 39°43' W 075°30'0 0.0
2017-Sep-13 09:30N 39°43' W 075°30'0 0.0
2017-Sep-13 09:00N 39°43' W 075°30'0 0.0
2017-Sep-13 08:30N 39°43' W 075°30'0 0.0
2017-Sep-13 08:00N 39°43' W 075°30'0 0.0
2017-Sep-13 07:27N 39°43' W 075°30'0 0.0
2017-Sep-13 07:00N 39°43' W 075°30'0 0.0
2017-Sep-13 06:30N 39°43' W 075°30'0 0.3
2017-Sep-13 06:00N 39°43' W 075°30'0 0.2
2017-Sep-13 05:30N 39°43' W 075°30'0 0.1
2017-Sep-13 05:00N 39°43' W 075°30'0 0.0
2017-Sep-13 04:30N 39°43' W 075°30'0 0.0
2017-Sep-13 04:00N 39°43' W 075°30'0 0.0
2017-Sep-13 03:30N 39°43' W 075°30'0 0.0
2017-Sep-13 03:00N 39°43' W 075°30'0 0.0
2017-Sep-13 02:30N 39°43' W 075°30'0 0.0
2017-Sep-13 02:00N 39°43' W 075°30'0 0.0
2017-Sep-13 01:30N 39°43' W 075°30'0 0.0
2017-Sep-13 01:00N 39°43' W 075°30'0 0.0
2017-Sep-13 00:30N 39°43' W 075°30'0 0.1
2017-Sep-13 00:00N 39°43' W 075°30'0 0.3
2017-Sep-12 23:30N 39°43' W 075°30'0 0.1
2017-Sep-12 22:57N 39°43' W 075°30'0 0.0
2017-Sep-12 22:30N 39°43' W 075°30'0 0.0
2017-Sep-12 22:00N 39°43' W 075°30'0 0.0
2017-Sep-12 21:30N 39°43' W 075°30'0 0.0
2017-Sep-12 21:00N 39°43' W 075°30'0 0.0
2017-Sep-12 20:31N 39°43' W 075°30'0 0.0
2017-Sep-12 20:01N 39°43' W 075°30'0 0.5
2017-Sep-12 19:30N 39°43' W 075°30'2 4.7
2017-Sep-12 19:00N 39°41' W 075°31'4 7.8
2017-Sep-12 18:31N 39°38' W 075°34'4 7.7
2017-Sep-12 18:01N 39°34' W 075°33'1 2.5
2017-Sep-12 17:28N 39°33' W 075°33'0 0.0
2017-Sep-12 16:58N 39°33' W 075°33'0 0.3
2017-Sep-12 16:28N 39°33' W 075°33'0 0.2
2017-Sep-12 15:58N 39°32' W 075°33'0 0.1
2017-Sep-12 15:28N 39°32' W 075°33'0 0.0
2017-Sep-12 14:58N 39°32' W 075°33'0 0.0
2017-Sep-12 14:28N 39°32' W 075°33'0 0.0
2017-Sep-12 13:58N 39°32' W 075°33'0 0.0
2017-Sep-12 13:28N 39°32' W 075°33'0 0.0
2017-Sep-12 12:58N 39°32' W 075°33'0 0.1
2017-Sep-12 09:14N 39°33' W 075°33'0 0.0
2017-Sep-12 08:59N 39°33' W 075°33'0 0.0
2017-Sep-12 08:29N 39°33' W 075°33'0 0.0
2017-Sep-12 07:59N 39°33' W 075°33'0 0.0
2017-Sep-12 07:29N 39°33' W 075°33'0 0.0
2017-Sep-12 06:59N 39°33' W 075°33'0 0.0
2017-Sep-12 06:29N 39°33' W 075°33'0 0.0
2017-Sep-12 05:59N 39°33' W 075°33'0 0.0
2017-Sep-12 05:29N 39°33' W 075°33'0 0.0
2017-Sep-12 04:59N 39°33' W 075°33'0 0.2
2017-Sep-12 04:29N 39°33' W 075°33'0 0.2
2017-Sep-12 03:59N 39°32' W 075°33'0 0.0
2017-Sep-12 03:29N 39°32' W 075°33'0 0.0
2017-Sep-12 02:59N 39°32' W 075°33'0 0.0
2017-Sep-12 02:29N 39°32' W 075°33'0 0.0
2017-Sep-12 01:59N 39°32' W 075°33'0 0.0
2017-Sep-12 01:29N 39°32' W 075°33'0 0.0
2017-Sep-12 00:59N 39°32' W 075°33'0 0.0
2017-Sep-12 00:29N 39°32' W 075°33'0 0.0
2017-Sep-11 23:59N 39°32' W 075°33'0 0.0
2017-Sep-11 23:29N 39°32' W 075°33'0 0.0
2017-Sep-11 22:59N 39°32' W 075°33'0 0.1
2017-Sep-11 22:29N 39°32' W 075°33'0 0.0
2017-Sep-11 21:59N 39°32' W 075°33'0 0.3
2017-Sep-11 21:29N 39°33' W 075°33'0 0.2
2017-Sep-11 20:59N 39°33' W 075°33'0 0.1
2017-Sep-11 20:29N 39°33' W 075°33'0 0.0
2017-Sep-11 19:59N 39°33' W 075°33'0 0.0
2017-Sep-11 19:29N 39°33' W 075°33'0 0.0
2017-Sep-11 18:59N 39°33' W 075°33'0 0.0
2017-Sep-11 18:29N 39°33' W 075°33'0 0.0
2017-Sep-11 17:59N 39°33' W 075°33'0 0.0
2017-Sep-11 17:29N 39°33' W 075°33'0 0.0
2017-Sep-11 16:59N 39°33' W 075°33'0 0.0
2017-Sep-11 16:29N 39°33' W 075°33'0 0.2
2017-Sep-11 15:59N 39°33' W 075°33'0 0.3
2017-Sep-11 15:29N 39°32' W 075°33'0 0.1
2017-Sep-11 14:59N 39°32' W 075°33'0 0.0
2017-Sep-11 14:29N 39°32' W 075°33'0 0.0
2017-Sep-11 13:59N 39°32' W 075°33'0 0.0
2017-Sep-11 13:29N 39°32' W 075°33'0 0.0
2017-Sep-11 12:59N 39°32' W 075°33'0 0.0
2017-Sep-11 12:29N 39°32' W 075°33'0 0.0
2017-Sep-11 11:59N 39°32' W 075°33'0 0.0
2017-Sep-11 11:29N 39°32' W 075°33'0 0.0
2017-Sep-11 10:59N 39°32' W 075°33'0 0.0
2017-Sep-11 10:29N 39°32' W 075°33'0 0.0
2017-Sep-11 09:59N 39°32' W 075°33'0 0.0
2017-Sep-11 09:29N 39°32' W 075°33'0 0.1
2017-Sep-11 08:59N 39°32' W 075°33'0 0.3
2017-Sep-11 08:29N 39°33' W 075°33'0 0.1
2017-Sep-11 07:59N 39°33' W 075°33'0 0.0
2017-Sep-11 07:29N 39°33' W 075°33'0 0.0
2017-Sep-11 06:59N 39°33' W 075°33'0 0.0
2017-Sep-11 06:29N 39°33' W 075°33'0 0.0
2017-Sep-11 05:59N 39°33' W 075°33'0 0.0
2017-Sep-11 05:29N 39°33' W 075°33'0 0.0
2017-Sep-11 04:59N 39°33' W 075°33'0 0.0
2017-Sep-11 04:29N 39°33' W 075°33'0 0.0
2017-Sep-11 03:59N 39°33' W 075°33'0 0.2
2017-Sep-11 03:29N 39°33' W 075°33'0 0.3
2017-Sep-11 02:59N 39°32' W 075°33'0 0.1
2017-Sep-11 02:29N 39°32' W 075°33'0 0.0
2017-Sep-11 01:59N 39°32' W 075°33'0 0.0
2017-Sep-11 01:29N 39°32' W 075°33'0 0.0
2017-Sep-11 00:59N 39°32' W 075°33'0 0.0
2017-Sep-11 00:29N 39°32' W 075°33'0 0.0
2017-Sep-10 23:59N 39°32' W 075°33'0 0.0
2017-Sep-10 23:29N 39°32' W 075°33'0 0.0
2017-Sep-10 22:59N 39°32' W 075°33'0 0.0
2017-Sep-10 22:29N 39°32' W 075°33'0 0.0
2017-Sep-10 21:59N 39°32' W 075°33'0 0.0
2017-Sep-10 21:29N 39°32' W 075°33'0 0.1
2017-Sep-10 20:59N 39°32' W 075°33'0 0.4
2017-Sep-10 20:29N 39°33' W 075°33'0 0.1
2017-Sep-10 19:59N 39°33' W 075°33'0 0.0
2017-Sep-10 19:29N 39°33' W 075°33'0 0.0
2017-Sep-10 18:59N 39°33' W 075°33'0 0.0
2017-Sep-10 18:29N 39°33' W 075°33'0 0.0
2017-Sep-10 17:59N 39°33' W 075°33'0 0.0
2017-Sep-10 17:29N 39°33' W 075°33'0 0.0
2017-Sep-10 16:59N 39°33' W 075°33'0 0.0
2017-Sep-10 16:29N 39°33' W 075°33'0 0.0
2017-Sep-10 15:59N 39°33' W 075°33'0 0.1
2017-Sep-10 15:29N 39°33' W 075°33'0 0.3
2017-Sep-10 14:59N 39°33' W 075°33'0 0.1
2017-Sep-10 13:59N 39°32' W 075°33'0 0.0
2017-Sep-10 13:29N 39°32' W 075°33'0 0.0
2017-Sep-10 12:59N 39°32' W 075°33'0 0.0
2017-Sep-10 12:28N 39°32' W 075°33'0 0.0
2017-Sep-10 11:58N 39°32' W 075°33'0 0.0
2017-Sep-10 11:28N 39°32' W 075°33'0 0.0
2017-Sep-10 10:58N 39°32' W 075°33'0 0.0
2017-Sep-10 10:28N 39°32' W 075°33'0 0.0
2017-Sep-10 09:58N 39°32' W 075°33'0 0.0
2017-Sep-10 09:28N 39°32' W 075°33'0 0.1
2017-Sep-10 08:58N 39°32' W 075°33'0 0.1
2017-Sep-10 08:28N 39°32' W 075°33'0 0.2
2017-Sep-10 07:58N 39°32' W 075°33'0 0.3
2017-Sep-10 07:28N 39°33' W 075°33'0 0.1
2017-Sep-10 06:58N 39°33' W 075°33'0 0.0
2017-Sep-10 06:28N 39°33' W 075°33'0 0.0
2017-Sep-10 05:58N 39°33' W 075°33'0 0.0
2017-Sep-10 05:28N 39°33' W 075°33'0 0.0
2017-Sep-10 04:58N 39°33' W 075°33'0 0.0
2017-Sep-10 04:28N 39°33' W 075°33'0 0.0
2017-Sep-10 03:58N 39°33' W 075°33'0 0.1
2017-Sep-10 03:28N 39°33' W 075°33'0 0.2
2017-Sep-10 02:58N 39°33' W 075°33'0 0.1
2017-Sep-10 02:28N 39°32' W 075°33'0 0.1
2017-Sep-10 01:58N 39°32' W 075°33'0 0.9
2017-Sep-10 01:30N 39°33' W 075°33'4 7.8
2017-Sep-10 01:00N 39°33' W 075°38'5 9.5
2017-Sep-10 00:30N 39°33' W 075°44'4 8.6
2017-Sep-10 00:00N 39°32' W 075°49'4 8.1
2017-Sep-09 23:30N 39°31' W 075°54'4 8.5
2017-Sep-09 23:00N 39°28' W 075°58'4 8.6
2017-Sep-09 22:30N 39°25' W 076°02'4 8.3
2017-Sep-09 22:00N 39°23' W 076°07'  

Dump ship's entire track history